createdAt,value
2023-01-06T00:00:25.038Z,4.26
2023-01-06T00:02:51.957Z,4.56
2023-01-06T00:05:18.728Z,4.51
2023-01-06T00:07:45.538Z,4.69
2023-01-06T00:10:12.335Z,4.76
2023-01-06T00:12:39.151Z,4.79
2023-01-06T00:15:06.636Z,4.71
2023-01-06T00:17:33.394Z,4.69
2023-01-06T00:20:00.128Z,4.83
2023-01-06T00:22:26.919Z,4.84
2023-01-06T00:24:53.633Z,4.89
2023-01-06T00:27:20.505Z,4.98
2023-01-06T00:29:49.619Z,4.98
2023-01-06T00:32:17.794Z,5.03
2023-01-06T00:34:44.656Z,4.96
2023-01-06T00:37:11.548Z,5.03
2023-01-06T00:39:38.281Z,4.84
2023-01-06T00:42:06.781Z,5.04
2023-01-06T00:44:37.914Z,5.07
2023-01-06T00:47:08.793Z,5.16
2023-01-06T00:49:35.677Z,5.16
2023-01-06T00:52:02.544Z,5.24
2023-01-06T00:54:29.467Z,5.29
2023-01-06T00:56:56.717Z,5.28
2023-01-06T00:59:25.585Z,5.27
2023-01-06T01:01:55.080Z,5.36
2023-01-06T01:04:22.034Z,5.35
2023-01-06T01:06:49.109Z,5.36
2023-01-06T01:09:27.438Z,5.35
2023-01-06T01:12:12.838Z,4.98
2023-01-06T01:14:50.526Z,5.24
2023-01-06T01:17:28.020Z,5.26
2023-01-06T01:19:57.626Z,5.05
2023-01-06T01:22:25.072Z,5.31
2023-01-06T01:24:51.890Z,5.37
2023-01-06T01:27:18.724Z,5.44
2023-01-06T01:29:45.624Z,5.26
2023-01-06T01:32:12.584Z,5.58
2023-01-06T01:34:39.700Z,5.65
2023-01-06T01:37:06.450Z,5.67
2023-01-06T01:39:33.421Z,5.66
2023-01-06T01:42:00.200Z,5.65
2023-01-06T01:45:01.994Z,5.72
2023-01-06T01:47:50.068Z,5.70
2023-01-06T01:50:28.413Z,5.67
2023-01-06T01:52:58.224Z,5.63
2023-01-06T01:55:25.207Z,5.51
2023-01-06T01:58:10.334Z,5.58
2023-01-06T02:00:37.189Z,5.47
2023-01-06T02:03:04.515Z,5.54
2023-01-06T02:05:31.346Z,5.59
2023-01-06T02:07:58.559Z,5.59
2023-01-06T02:10:25.596Z,5.56
2023-01-06T02:12:54.932Z,5.63
2023-01-06T02:15:29.570Z,5.60
2023-01-06T02:18:03.308Z,5.53
2023-01-06T02:20:29.971Z,5.47
2023-01-06T02:23:21.655Z,5.43
2023-01-06T02:26:00.108Z,5.46
2023-01-06T02:28:54.970Z,5.53
2023-01-06T02:31:28.254Z,5.45
2023-01-06T02:34:00.090Z,5.40
2023-01-06T02:36:47.129Z,5.26
2023-01-06T02:39:21.618Z,5.01
2023-01-06T02:41:59.912Z,5.05
2023-01-06T02:44:45.540Z,4.91
2023-01-06T02:47:19.784Z,4.88
2023-01-06T02:49:58.038Z,5.18
2023-01-06T02:52:41.211Z,5.54
2023-01-06T02:55:16.224Z,5.30
2023-01-06T02:57:57.286Z,5.21
2023-01-06T03:00:40.772Z,5.13
2023-01-06T03:03:13.276Z,5.33
2023-01-06T03:05:40.689Z,5.29
2023-01-06T03:08:14.206Z,5.30
2023-01-06T03:10:41.864Z,5.32
2023-01-06T03:13:29.254Z,5.29
2023-01-06T03:15:58.347Z,5.45
2023-01-06T03:18:25.140Z,5.42
2023-01-06T03:20:52.193Z,5.52
2023-01-06T03:23:19.363Z,5.59
2023-01-06T03:25:46.153Z,5.35
2023-01-06T03:28:13.009Z,5.63
2023-01-06T03:30:48.347Z,5.67
2023-01-06T03:33:23.659Z,5.69
2023-01-06T03:35:56.364Z,5.72
2023-01-06T03:38:49.053Z,5.74
2023-01-06T03:41:46.567Z,5.78
2023-01-06T03:44:34.861Z,5.81
2023-01-06T03:47:24.189Z,5.89
2023-01-06T03:49:57.812Z,5.78
2023-01-06T03:52:33.818Z,5.85
2023-01-06T03:55:05.548Z,5.65
2023-01-06T03:57:37.513Z,5.58
2023-01-06T04:00:31.900Z,5.45
2023-01-06T04:03:07.157Z,5.50
2023-01-06T04:05:34.283Z,5.59
2023-01-06T04:08:02.510Z,5.61
2023-01-06T04:10:29.274Z,5.15
2023-01-06T04:12:58.263Z,5.33
2023-01-06T04:15:29.466Z,5.33
2023-01-06T04:17:58.196Z,5.19
2023-01-06T04:20:27.780Z,5.30
2023-01-06T04:23:01.105Z,5.42
2023-01-06T04:25:33.503Z,5.45
2023-01-06T04:28:08.139Z,5.34
2023-01-06T04:30:35.226Z,5.33
2023-01-06T04:33:02.465Z,5.30
2023-01-06T04:35:29.297Z,5.26
2023-01-06T04:37:56.082Z,5.22
2023-01-06T04:40:22.890Z,5.22
2023-01-06T04:43:04.856Z,5.18
2023-01-06T04:45:32.670Z,5.41
2023-01-06T04:47:59.581Z,5.43
2023-01-06T04:50:26.735Z,5.44
2023-01-06T04:52:53.589Z,5.43
2023-01-06T04:55:20.393Z,5.44
2023-01-06T04:57:47.138Z,5.14
2023-01-06T05:00:17.095Z,5.44
2023-01-06T05:02:44.228Z,5.46
2023-01-06T05:05:11.208Z,5.47
2023-01-06T05:07:37.910Z,5.42
2023-01-06T05:10:05.827Z,5.41
2023-01-06T05:12:32.936Z,5.46
2023-01-06T05:14:59.649Z,5.43
2023-01-06T05:17:26.385Z,5.57
2023-01-06T05:19:53.189Z,5.62
2023-01-06T05:22:20.022Z,5.62
2023-01-06T05:24:46.736Z,5.57
2023-01-06T05:27:13.619Z,5.59
2023-01-06T05:29:40.405Z,5.62
2023-01-06T05:32:07.297Z,5.59
2023-01-06T05:34:34.033Z,5.52
2023-01-06T05:37:00.771Z,5.56
2023-01-06T05:39:27.601Z,5.53
2023-01-06T05:41:54.477Z,5.52
2023-01-06T05:44:21.885Z,5.58
2023-01-06T05:46:48.750Z,5.61
2023-01-06T05:49:15.582Z,5.59
2023-01-06T05:51:42.539Z,5.59
2023-01-06T05:54:09.328Z,5.66
2023-01-06T05:56:36.116Z,5.84
2023-01-06T05:59:03.123Z,5.80
2023-01-06T06:01:31.320Z,5.73
2023-01-06T06:03:58.289Z,5.70
2023-01-06T06:06:25.746Z,5.71
2023-01-06T06:08:52.458Z,5.78
2023-01-06T06:11:19.932Z,5.78
2023-01-06T06:13:47.519Z,5.69
2023-01-06T06:16:14.933Z,5.77
2023-01-06T06:18:44.618Z,5.84
2023-01-06T06:21:15.684Z,5.81
2023-01-06T06:23:42.532Z,5.71
2023-01-06T06:26:09.668Z,5.83
2023-01-06T06:28:36.814Z,5.80
2023-01-06T06:31:07.532Z,5.83
2023-01-06T06:33:34.492Z,5.68
2023-01-06T06:36:01.300Z,5.78
2023-01-06T06:38:28.207Z,5.83
2023-01-06T06:40:55.009Z,5.80
2023-01-06T06:43:21.828Z,5.80
2023-01-06T06:45:48.622Z,5.75
2023-01-06T06:48:16.160Z,5.78
2023-01-06T06:50:42.891Z,5.86
2023-01-06T06:53:09.890Z,5.83
2023-01-06T06:55:36.756Z,5.88
2023-01-06T06:58:03.703Z,5.78
2023-01-06T07:00:30.653Z,5.69
2023-01-06T07:02:57.592Z,5.60
2023-01-06T07:05:25.696Z,5.58
2023-01-06T07:07:52.583Z,5.59
2023-01-06T07:10:19.464Z,5.60
2023-01-06T07:12:46.218Z,5.61
2023-01-06T07:15:12.962Z,5.62
2023-01-06T07:17:41.707Z,5.60
2023-01-06T07:20:09.308Z,5.59
2023-01-06T07:22:39.913Z,5.60
2023-01-06T07:25:07.913Z,5.65
2023-01-06T07:27:34.976Z,5.66
2023-01-06T07:30:02.259Z,5.63
2023-01-06T07:32:29.298Z,5.68
2023-01-06T07:34:56.058Z,5.70
2023-01-06T07:37:22.811Z,5.70
2023-01-06T07:39:49.553Z,5.62
2023-01-06T07:42:16.289Z,5.57
2023-01-06T07:44:43.025Z,5.58
2023-01-06T07:47:10.624Z,5.60
2023-01-06T07:49:37.449Z,5.64
2023-01-06T07:52:04.223Z,5.63
2023-01-06T07:54:31.578Z,5.61
2023-01-06T07:56:58.324Z,5.63
2023-01-06T07:59:25.082Z,5.73
2023-01-06T08:01:52.011Z,5.78
2023-01-06T08:04:18.824Z,5.77
2023-01-06T08:06:45.587Z,5.88
2023-01-06T08:09:12.360Z,5.93
2023-01-06T08:11:39.089Z,5.90
2023-01-06T08:14:05.879Z,5.76
2023-01-06T08:16:32.628Z,5.81
2023-01-06T08:18:59.344Z,5.87
2023-01-06T08:21:26.203Z,5.98
2023-01-06T08:23:52.966Z,6.03
2023-01-06T08:26:19.882Z,6.09
2023-01-06T08:28:46.752Z,6.09
2023-01-06T08:31:15.913Z,6.13
2023-01-06T08:33:42.775Z,6.19
2023-01-06T08:36:11.300Z,6.22
2023-01-06T08:38:38.075Z,6.03
2023-01-06T08:41:04.914Z,6.15
2023-01-06T08:43:31.834Z,6.24
2023-01-06T08:46:03.492Z,6.29
2023-01-06T08:48:30.389Z,6.30
2023-01-06T08:51:02.523Z,6.35
2023-01-06T08:53:29.446Z,6.28
2023-01-06T08:55:56.546Z,6.53
2023-01-06T08:58:23.308Z,6.52
2023-01-06T09:00:50.958Z,6.58
2023-01-06T09:03:17.772Z,6.70
2023-01-06T09:05:44.537Z,6.74
2023-01-06T09:08:11.349Z,6.90
2023-01-06T09:10:38.677Z,6.97
2023-01-06T09:13:05.517Z,6.96
2023-01-06T09:15:32.359Z,7.00
2023-01-06T09:17:59.240Z,6.96
2023-01-06T09:20:26.059Z,6.95
2023-01-06T09:22:52.982Z,6.99
2023-01-06T09:25:22.656Z,7.04
2023-01-06T09:27:49.634Z,7.05
2023-01-06T09:30:16.572Z,7.16
2023-01-06T09:32:43.785Z,7.13
2023-01-06T09:35:10.723Z,7.20
2023-01-06T09:37:37.938Z,7.28
2023-01-06T09:40:05.267Z,7.35
2023-01-06T09:42:47.216Z,7.37
2023-01-06T09:45:19.344Z,7.52
2023-01-06T09:47:53.575Z,7.74
2023-01-06T09:50:34.719Z,7.76
2023-01-06T09:53:03.501Z,7.79
2023-01-06T09:55:37.968Z,7.85
2023-01-06T09:58:14.831Z,7.85
2023-01-06T10:00:44.629Z,7.82
2023-01-06T10:03:15.606Z,7.66
2023-01-06T10:05:51.810Z,7.57
2023-01-06T10:08:28.541Z,7.52
2023-01-06T10:11:12.612Z,7.57
2023-01-06T10:14:01.870Z,7.51
2023-01-06T10:16:51.892Z,7.62
2023-01-06T10:21:41.666Z,8.06
2023-01-06T10:24:15.754Z,8.14
2023-01-06T10:26:48.030Z,8.19
2023-01-06T10:29:16.532Z,8.12
2023-01-06T10:31:48.042Z,8.33
2023-01-06T10:34:23.361Z,8.55
2023-01-06T10:37:04.219Z,8.67
2023-01-06T10:39:30.781Z,8.76
2023-01-06T10:42:23.190Z,8.49
2023-01-06T10:44:49.713Z,8.45
2023-01-06T10:47:36.413Z,8.28
2023-01-06T10:50:02.924Z,8.53
2023-01-06T10:52:29.394Z,8.40
2023-01-06T10:55:02.543Z,8.45
2023-01-06T10:57:32.867Z,8.42
2023-01-06T11:00:09.803Z,8.55
2023-01-06T11:02:36.426Z,8.40
2023-01-06T11:05:03.054Z,8.38
2023-01-06T11:07:30.016Z,8.42
2023-01-06T11:09:56.551Z,8.70
2023-01-06T11:12:25.697Z,8.82
2023-01-06T11:15:02.818Z,8.87
2023-01-06T11:17:29.358Z,8.85
2023-01-06T11:20:14.715Z,8.93
2023-01-06T11:22:41.671Z,9.02
2023-01-06T11:25:20.344Z,8.96
2023-01-06T11:27:47.502Z,8.82
2023-01-06T11:30:22.048Z,8.97
2023-01-06T11:32:48.504Z,9.11
2023-01-06T11:35:32.124Z,9.06
2023-01-06T11:37:59.691Z,9.04
2023-01-06T11:40:32.131Z,8.93
2023-01-06T11:43:00.181Z,8.93
2023-01-06T11:45:56.845Z,8.95
2023-01-06T11:49:02.971Z,8.94
2023-01-06T11:51:45.015Z,8.85
2023-01-06T11:54:32.211Z,8.97
2023-01-06T11:57:08.869Z,9.01
2023-01-06T12:00:06.435Z,9.03
2023-01-06T12:02:54.227Z,8.98
2023-01-06T12:05:43.045Z,8.84
2023-01-06T12:08:19.005Z,8.71
2023-01-06T12:10:46.953Z,8.69
2023-01-06T12:13:14.390Z,8.63
2023-01-06T12:15:41.556Z,8.64
2023-01-06T12:18:15.443Z,8.77
2023-01-06T12:20:44.409Z,8.85
2023-01-06T12:23:31.931Z,8.85
2023-01-06T12:26:00.525Z,8.77
2023-01-06T12:28:31.249Z,8.77
2023-01-06T12:31:02.739Z,8.70
2023-01-06T12:33:29.159Z,8.75
2023-01-06T12:35:57.394Z,8.56
2023-01-06T12:38:30.243Z,8.62
2023-01-06T12:41:02.078Z,8.55
2023-01-06T12:43:29.401Z,8.56
2023-01-06T12:46:03.356Z,8.57
2023-01-06T12:48:39.007Z,8.58
2023-01-06T12:51:31.492Z,8.61
2023-01-06T12:53:59.283Z,8.67
2023-01-06T12:56:55.699Z,8.61
2023-01-06T12:59:28.146Z,8.64
2023-01-06T13:02:38.905Z,8.60
2023-01-06T13:05:30.243Z,8.55
2023-01-06T13:08:15.597Z,8.52
2023-01-06T13:10:48.731Z,8.54
2023-01-06T13:13:24.283Z,8.59
2023-01-06T13:15:50.742Z,8.74
2023-01-06T13:18:34.082Z,8.82
2023-01-06T13:21:26.686Z,8.74
2023-01-06T13:23:56.112Z,8.76
2023-01-06T13:26:31.513Z,8.88
2023-01-06T13:29:05.111Z,8.98
2023-01-06T13:32:02.484Z,9.03
2023-01-06T13:34:53.979Z,9.11
2023-01-06T13:37:33.355Z,9.12
2023-01-06T13:40:09.320Z,9.07
2023-01-06T13:42:37.693Z,9.23
2023-01-06T13:45:05.244Z,9.30
2023-01-06T13:47:32.280Z,9.33
2023-01-06T13:49:59.228Z,9.29
2023-01-06T13:52:27.364Z,9.35
2023-01-06T13:55:01.626Z,9.37
2023-01-06T13:57:33.972Z,9.20
2023-01-06T14:00:03.390Z,9.37
2023-01-06T14:02:36.111Z,9.37
2023-01-06T14:05:21.685Z,9.31
2023-01-06T14:07:55.574Z,9.28
2023-01-06T14:10:44.547Z,9.32
2023-01-06T14:13:26.295Z,9.28
2023-01-06T14:16:01.290Z,9.24
2023-01-06T14:18:34.251Z,9.24
2023-01-06T14:21:06.130Z,9.29
2023-01-06T14:23:32.719Z,9.18
2023-01-06T14:25:59.273Z,9.11
2023-01-06T14:28:29.841Z,8.95
2023-01-06T14:31:24.294Z,8.83
2023-01-06T14:33:56.217Z,8.68
2023-01-06T14:36:22.844Z,8.56
2023-01-06T14:38:54.598Z,8.47
2023-01-06T14:41:33.413Z,8.41
2023-01-06T14:44:14.946Z,8.44
2023-01-06T14:46:51.909Z,8.35
2023-01-06T14:49:25.106Z,8.36
2023-01-06T14:51:53.379Z,8.37
2023-01-06T14:54:27.865Z,8.33
2023-01-06T14:57:01.069Z,8.31
2023-01-06T14:59:27.582Z,8.11
2023-01-06T15:02:00.400Z,8.24
2023-01-06T15:04:34.489Z,8.23
2023-01-06T15:07:20.823Z,8.18
2023-01-06T15:09:48.118Z,8.06
2023-01-06T15:12:25.583Z,8.15
2023-01-06T15:14:52.162Z,8.11
2023-01-06T15:17:18.682Z,8.09
2023-01-06T15:19:45.929Z,8.05
2023-01-06T15:22:14.167Z,8.00
2023-01-06T15:24:43.786Z,7.92
2023-01-06T15:27:14.896Z,7.96
2023-01-06T15:29:56.918Z,7.95
2023-01-06T15:32:25.124Z,7.94
2023-01-06T15:34:52.132Z,7.94
2023-01-06T15:37:20.304Z,7.90
2023-01-06T15:39:47.119Z,7.88
2023-01-06T15:42:13.742Z,7.93
2023-01-06T15:44:40.346Z,7.93
2023-01-06T15:47:12.611Z,7.92
2023-01-06T15:49:42.583Z,7.87
2023-01-06T15:52:18.869Z,7.86
2023-01-06T15:54:45.408Z,7.89
2023-01-06T15:57:16.476Z,7.81
2023-01-06T16:00:13.562Z,7.87
2023-01-06T16:02:40.072Z,7.82
2023-01-06T16:05:06.849Z,7.86
2023-01-06T16:07:34.955Z,7.83
2023-01-06T16:10:01.606Z,7.81
2023-01-06T16:12:28.110Z,7.83
2023-01-06T16:14:54.653Z,7.80
2023-01-06T16:17:31.360Z,7.76
2023-01-06T16:20:05.423Z,7.75
2023-01-06T16:22:50.607Z,7.83
2023-01-06T16:25:25.955Z,7.83
2023-01-06T16:27:54.029Z,7.83
2023-01-06T16:30:27.606Z,7.80
2023-01-06T16:32:55.088Z,7.80
2023-01-06T16:35:23.366Z,7.71
2023-01-06T16:37:50.259Z,7.68
2023-01-06T16:40:17.548Z,7.70
2023-01-06T16:42:44.328Z,7.68
2023-01-06T16:45:26.961Z,7.68
2023-01-06T16:47:53.762Z,7.64
2023-01-06T16:50:36.253Z,7.66
2023-01-06T16:53:10.237Z,7.65
2023-01-06T16:55:37.651Z,7.62
2023-01-06T16:58:18.024Z,7.59
2023-01-06T17:00:51.196Z,7.61
2023-01-06T17:03:19.829Z,7.49
2023-01-06T17:05:46.341Z,7.44
2023-01-06T17:08:15.256Z,7.45
2023-01-06T17:10:42.089Z,7.52
2023-01-06T17:13:28.692Z,7.48
2023-01-06T17:15:58.477Z,7.51
2023-01-06T17:18:28.990Z,7.46
2023-01-06T17:21:16.902Z,7.27
2023-01-06T17:23:49.461Z,7.52
2023-01-06T17:26:17.158Z,7.51
2023-01-06T17:28:43.693Z,7.50
2023-01-06T17:31:18.139Z,7.49
2023-01-06T17:33:44.683Z,7.52
2023-01-06T17:36:23.985Z,7.54
2023-01-06T17:38:51.124Z,7.48
2023-01-06T17:41:18.225Z,7.53
2023-01-06T17:43:45.897Z,7.57
2023-01-06T17:46:23.005Z,7.45
2023-01-06T17:48:52.305Z,7.54
2023-01-06T17:51:18.785Z,7.56
2023-01-06T17:54:03.708Z,7.51
2023-01-06T17:56:30.905Z,7.50
2023-01-06T17:58:57.402Z,7.42
2023-01-06T18:01:25.989Z,7.45
2023-01-06T18:03:52.719Z,7.44
2023-01-06T18:06:30.274Z,7.43
2023-01-06T18:09:05.825Z,7.42
2023-01-06T18:11:41.041Z,7.31
2023-01-06T18:14:22.642Z,7.34
2023-01-06T18:16:52.100Z,7.33
2023-01-06T18:19:28.959Z,7.33
2023-01-06T18:21:55.518Z,7.31
2023-01-06T18:24:22.837Z,7.36
2023-01-06T18:26:53.680Z,7.32
2023-01-06T18:29:39.373Z,7.34
2023-01-06T18:32:20.986Z,7.38
2023-01-06T18:34:51.162Z,7.37
2023-01-06T18:37:17.826Z,7.37
2023-01-06T18:39:48.036Z,7.21
2023-01-06T18:42:22.028Z,7.31
2023-01-06T18:44:48.661Z,7.23
2023-01-06T18:47:20.129Z,7.22
2023-01-06T18:49:47.234Z,7.21
2023-01-06T18:52:36.239Z,7.21
2023-01-06T18:55:02.798Z,7.24
2023-01-06T18:57:31.472Z,7.21
2023-01-06T19:00:24.080Z,7.27
2023-01-06T19:02:51.178Z,7.27
2023-01-06T19:05:17.741Z,7.25
2023-01-06T19:07:44.255Z,7.28
2023-01-06T19:10:24.574Z,7.28
2023-01-06T19:12:51.153Z,7.24
2023-01-06T19:15:21.629Z,7.22
2023-01-06T19:17:48.117Z,7.25
2023-01-06T19:20:28.934Z,7.23
2023-01-06T19:22:56.895Z,7.14
2023-01-06T19:25:33.085Z,6.98
2023-01-06T19:28:01.905Z,7.15
2023-01-06T19:30:49.282Z,7.19
2023-01-06T19:33:28.289Z,7.17
2023-01-06T19:36:32.714Z,7.20
2023-01-06T19:39:00.941Z,7.19
2023-01-06T19:41:29.878Z,7.23
2023-01-06T19:44:10.791Z,7.22
2023-01-06T19:46:39.728Z,7.18
2023-01-06T19:49:26.110Z,7.13
2023-01-06T19:51:55.801Z,7.18
2023-01-06T19:54:43.488Z,7.15
2023-01-06T19:57:36.912Z,7.18
2023-01-06T20:00:06.142Z,7.17
2023-01-06T20:02:36.880Z,7.15
2023-01-06T20:05:05.197Z,7.12
2023-01-06T20:07:31.773Z,7.09
2023-01-06T20:09:58.280Z,7.15
2023-01-06T20:12:24.973Z,7.03
2023-01-06T20:14:51.534Z,7.14
2023-01-06T20:17:17.994Z,7.16
2023-01-06T20:19:45.005Z,7.16
2023-01-06T20:22:11.527Z,7.16
2023-01-06T20:24:38.158Z,6.89
2023-01-06T20:27:04.794Z,7.15
2023-01-06T20:29:31.279Z,7.16
2023-01-06T20:31:57.881Z,7.14
2023-01-06T20:34:24.501Z,7.00
2023-01-06T20:36:50.995Z,7.16
2023-01-06T20:39:17.556Z,7.13
2023-01-06T20:41:44.094Z,7.10
2023-01-06T20:44:10.665Z,7.01
2023-01-06T20:46:37.179Z,7.07
2023-01-06T20:49:03.697Z,7.06
2023-01-06T20:51:30.267Z,7.04
2023-01-06T20:53:56.879Z,7.05
2023-01-06T20:56:24.448Z,7.01
2023-01-06T20:58:50.982Z,7.03
2023-01-06T21:01:17.666Z,7.01
2023-01-06T21:03:44.416Z,7.01
2023-01-06T21:06:11.106Z,6.99
2023-01-06T21:08:37.643Z,6.90
2023-01-06T21:11:04.224Z,6.97
2023-01-06T21:13:30.705Z,6.94
2023-01-06T21:15:57.199Z,6.94
2023-01-06T21:18:23.769Z,6.93
2023-01-06T21:20:50.333Z,6.95
2023-01-06T21:23:16.831Z,6.93
2023-01-06T21:25:43.410Z,6.90
2023-01-06T21:28:09.882Z,6.92
2023-01-06T21:30:36.409Z,6.92
2023-01-06T21:33:02.980Z,6.85
2023-01-06T21:35:29.475Z,6.85
2023-01-06T21:37:56.032Z,6.84
2023-01-06T21:40:22.675Z,6.84
2023-01-06T21:43:07.739Z,6.78
2023-01-06T21:45:43.904Z,6.86
2023-01-06T21:48:11.409Z,6.88
2023-01-06T21:50:44.675Z,6.87
2023-01-06T21:53:11.661Z,6.90
2023-01-06T21:55:38.361Z,6.89
2023-01-06T21:58:05.033Z,6.93
2023-01-06T22:00:31.534Z,6.88
2023-01-06T22:02:58.026Z,6.91
2023-01-06T22:05:24.677Z,6.91
2023-01-06T22:07:52.126Z,6.88
2023-01-06T22:10:21.716Z,6.85
2023-01-06T22:12:48.563Z,6.79
2023-01-06T22:15:15.077Z,6.81
2023-01-06T22:17:41.552Z,6.78
2023-01-06T22:20:09.104Z,6.69
2023-01-06T22:22:35.618Z,6.58
2023-01-06T22:25:02.667Z,6.67
2023-01-06T22:27:29.205Z,6.67
2023-01-06T22:29:55.733Z,6.68
2023-01-06T22:32:22.249Z,6.62
2023-01-06T22:34:48.886Z,6.59
2023-01-06T22:37:15.386Z,6.67
2023-01-06T22:39:43.927Z,6.64
2023-01-06T22:42:10.504Z,6.56
2023-01-06T22:44:37.057Z,6.69
2023-01-06T22:47:03.659Z,6.77
2023-01-06T22:49:30.347Z,6.79
2023-01-06T22:51:56.832Z,6.80
2023-01-06T22:54:23.293Z,6.78
2023-01-06T22:56:50.030Z,6.79
2023-01-06T22:59:16.550Z,6.76
2023-01-06T23:01:43.205Z,6.78
2023-01-06T23:04:10.087Z,6.78
2023-01-06T23:06:36.711Z,6.77
2023-01-06T23:09:03.311Z,6.69
2023-01-06T23:11:31.355Z,6.77
2023-01-06T23:13:58.221Z,6.81
2023-01-06T23:16:26.499Z,6.79
2023-01-06T23:18:53.384Z,6.83
2023-01-06T23:21:23.801Z,6.76
2023-01-06T23:23:50.721Z,6.69
2023-01-06T23:26:20.286Z,6.68
2023-01-06T23:28:46.891Z,6.67
2023-01-06T23:31:15.125Z,6.57
2023-01-06T23:33:44.376Z,6.66
2023-01-06T23:36:11.726Z,6.69
2023-01-06T23:38:38.530Z,6.57
2023-01-06T23:41:11.792Z,6.62
2023-01-06T23:43:38.510Z,6.65
2023-01-06T23:46:09.991Z,6.66
2023-01-06T23:48:36.543Z,6.65
2023-01-06T23:51:03.698Z,6.68
2023-01-06T23:53:30.392Z,6.39
2023-01-06T23:56:01.393Z,6.66
2023-01-06T23:58:29.150Z,6.67
